Airfield :
LOGIN :

Register | Disclaimer

   EN    FR    IT 

 










Legend :    VFR   Marginal VFR   IFR   Intensive IFR   Very Intensive IFR
Visi :
Ceiling :
>= 8 km
>= 3000ft
5 to 8 km
1000 to 3000 ft
1500m to 5 km
500 to 1000 ft
800 to 1500m
200 to 500 ft
< 800m
< 200 ft
Symbols :   Thunderstorms  Fog  Heavy snow  Heavy precipitations  Wind > 20 kt
SIGMETs :     Misc.  Thunderstorms  Icing  Turbulence  Mountain Waves  Volcanic Ashes







- Airport Elevation : 22 ft
- IATA code : LDY
- Download approach charts


EGAE - Londonderry Eglington

CURRENT METAR :
  • 161220Z 16008KT 120V200 9999 FEW025 BKN038 16/08 Q1007

EXPIRED METARs :
  • 161150Z 19008KT 150V230 9999 SCT040 16/07 Q1007
  • 161120Z 22006KT 180V250 9999 FEW024 SCT038 15/08 Q1007
  • 161050Z 25009KT 9999 FEW024 BKN036 15/08 Q1007
  • 161020Z 20009KT 140V230 9999 SCT024 16/07 Q1008
  • 160950Z 21009KT 170V240 9999 SCT024 15/08 Q1008

TAF TAF EGAE
Valid from the 16 at 12:00 until the 16 at 21:00 UTC


161057Z 1612/1621 21005KT 9999 SCT035
TEMPO 1612/1621 6000 SHRA
PROB40
TEMPO 1616/1621 20015G25KT 3000 +SHRA +TSRA BKN014 BKN020CB
No reported NOTAMs for that airfield.



MET'MAP, your aeronautical weather chart ! - Copyright ORBIFLY December 2007 - Disclaimer

ORBIFLY MET'MAP TEAM :

Programming & Development : Alexandra Zaïnal
Concept & Development : Baudouin d'Aumeries
Co-Development & Prog : Marc-Olivier Méhu
Technical & hardware support : Manuel Goepfert

Contact : metmap@orbifly.com




SOURCES & CREDITS :

   NOAA